sensor_id;sensor_type;location;lat;lon;timestamp;pressure;altitude;pressure_sealevel;temperature;humidity
15294;BME280;7748;52.474;13.454;2022-11-25T00:01:19;101212.19;;;3.08;100.00
15294;BME280;7748;52.474;13.454;2022-11-25T00:03:48;101211.66;;;3.12;100.00
15294;BME280;7748;52.474;13.454;2022-11-25T00:06:21;101227.25;;;3.27;100.00
15294;BME280;7748;52.474;13.454;2022-11-25T00:08:52;101221.88;;;3.35;100.00
15294;BME280;7748;52.474;13.454;2022-11-25T00:11:20;101221.22;;;3.26;100.00
15294;BME280;7748;52.474;13.454;2022-11-25T00:13:49;101219.63;;;3.40;100.00
15294;BME280;7748;52.474;13.454;2022-11-25T00:16:19;101221.75;;;3.34;100.00
15294;BME280;7748;52.474;13.454;2022-11-25T00:18:48;101223.41;;;3.45;100.00
15294;BME280;7748;52.474;13.454;2022-11-25T00:21:18;101212.00;;;3.53;100.00
15294;BME280;7748;52.474;13.454;2022-11-25T00:23:51;101205.13;;;3.29;100.00
15294;BME280;7748;52.474;13.454;2022-11-25T00:26:20;101217.22;;;3.30;100.00
15294;BME280;7748;52.474;13.454;2022-11-25T00:28:49;101224.56;;;3.37;100.00
15294;BME280;7748;52.474;13.454;2022-11-25T00:31:18;101212.44;;;3.48;100.00
15294;BME280;7748;52.474;13.454;2022-11-25T00:33:47;101211.13;;;3.53;100.00
15294;BME280;7748;52.474;13.454;2022-11-25T00:36:17;101205.34;;;3.69;100.00
15294;BME280;7748;52.474;13.454;2022-11-25T00:38:46;101215.09;;;3.61;100.00
15294;BME280;7748;52.474;13.454;2022-11-25T00:41:16;101217.56;;;3.59;100.00
15294;BME280;7748;52.474;13.454;2022-11-25T00:44:01;101216.81;;;3.49;100.00
15294;BME280;7748;52.474;13.454;2022-11-25T00:46:46;101218.16;;;3.55;100.00
15294;BME280;7748;52.474;13.454;2022-11-25T00:49:14;101215.34;;;3.52;100.00
15294;BME280;7748;52.474;13.454;2022-11-25T00:51:42;101212.00;;;3.53;100.00
15294;BME280;7748;52.474;13.454;2022-11-25T00:54:10;101222.34;;;3.67;100.00
15294;BME280;7748;52.474;13.454;2022-11-25T00:56:39;101224.00;;;3.66;100.00
15294;BME280;7748;52.474;13.454;2022-11-25T00:59:08;101222.97;;;3.76;100.00
15294;BME280;7748;52.474;13.454;2022-11-25T01:01:36;101227.28;;;3.89;100.00
15294;BME280;7748;52.474;13.454;2022-11-25T01:04:04;101215.13;;;3.86;100.00
15294;BME280;7748;52.474;13.454;2022-11-25T01:06:33;101219.69;;;3.90;100.00
15294;BME280;7748;52.474;13.454;2022-11-25T01:09:01;101214.56;;;3.90;100.00
15294;BME280;7748;52.474;13.454;2022-11-25T01:11:29;101217.63;;;3.98;100.00
15294;BME280;7748;52.474;13.454;2022-11-25T01:13:58;101219.06;;;3.81;100.00
15294;BME280;7748;52.474;13.454;2022-11-25T01:16:28;101215.25;;;3.76;100.00
15294;BME280;7748;52.474;13.454;2022-11-25T01:18:58;101217.69;;;3.86;100.00
15294;BME280;7748;52.474;13.454;2022-11-25T01:21:28;101215.50;;;3.79;100.00
15294;BME280;7748;52.474;13.454;2022-11-25T01:23:58;101209.19;;;3.87;100.00
15294;BME280;7748;52.474;13.454;2022-11-25T01:26:27;101221.47;;;3.91;100.00
15294;BME280;7748;52.474;13.454;2022-11-25T01:28:59;101212.66;;;3.88;100.00
15294;BME280;7748;52.474;13.454;2022-11-25T01:31:29;101206.03;;;3.91;100.00
15294;BME280;7748;52.474;13.454;2022-11-25T01:33:58;101211.75;;;3.87;100.00
15294;BME280;7748;52.474;13.454;2022-11-25T01:36:27;101212.75;;;3.89;100.00
15294;BME280;7748;52.474;13.454;2022-11-25T01:38:56;101199.34;;;3.93;100.00
15294;BME280;7748;52.474;13.454;2022-11-25T01:41:26;101200.03;;;3.91;100.00
15294;BME280;7748;52.474;13.454;2022-11-25T01:44:05;101201.34;;;3.97;100.00
15294;BME280;7748;52.474;13.454;2022-11-25T01:46:44;101196.38;;;4.00;100.00
15294;BME280;7748;52.474;13.454;2022-11-25T01:49:17;101191.63;;;3.93;100.00
15294;BME280;7748;52.474;13.454;2022-11-25T01:51:49;101194.63;;;3.99;100.00
15294;BME280;7748;52.474;13.454;2022-11-25T01:54:20;101191.44;;;4.04;100.00
15294;BME280;7748;52.474;13.454;2022-11-25T01:56:52;101193.25;;;4.05;100.00
15294;BME280;7748;52.474;13.454;2022-11-25T01:59:23;101180.06;;;4.00;100.00
15294;BME280;7748;52.474;13.454;2022-11-25T02:01:52;101182.16;;;4.06;100.00
15294;BME280;7748;52.474;13.454;2022-11-25T02:04:24;101181.59;;;4.10;100.00
15294;BME280;7748;52.474;13.454;2022-11-25T02:06:59;101184.97;;;4.09;100.00
15294;BME280;7748;52.474;13.454;2022-11-25T02:09:29;101176.50;;;3.98;100.00
15294;BME280;7748;52.474;13.454;2022-11-25T02:11:58;101173.13;;;3.99;100.00
15294;BME280;7748;52.474;13.454;2022-11-25T02:14:29;101170.00;;;4.03;100.00
15294;BME280;7748;52.474;13.454;2022-11-25T02:17:16;101173.69;;;4.07;100.00
15294;BME280;7748;52.474;13.454;2022-11-25T02:19:55;101178.25;;;4.11;100.00
15294;BME280;7748;52.474;13.454;2022-11-25T02:22:28;101174.44;;;4.06;100.00
15294;BME280;7748;52.474;13.454;2022-11-25T02:25:06;101171.78;;;4.04;100.00
15294;BME280;7748;52.474;13.454;2022-11-25T02:27:34;101168.63;;;4.08;100.00
15294;BME280;7748;52.474;13.454;2022-11-25T02:30:03;101174.75;;;4.10;100.00
15294;BME280;7748;52.474;13.454;2022-11-25T02:32:31;101177.06;;;4.19;100.00
15294;BME280;7748;52.474;13.454;2022-11-25T02:34:59;101176.63;;;4.13;100.00
15294;BME280;7748;52.474;13.454;2022-11-25T02:37:27;101170.16;;;4.18;100.00
15294;BME280;7748;52.474;13.454;2022-11-25T02:39:55;101168.53;;;4.20;100.00
15294;BME280;7748;52.474;13.454;2022-11-25T02:42:26;101170.81;;;4.15;100.00
15294;BME280;7748;52.474;13.454;2022-11-25T02:44:56;101173.28;;;4.14;100.00
15294;BME280;7748;52.474;13.454;2022-11-25T02:47:24;101175.88;;;4.14;100.00
15294;BME280;7748;52.474;13.454;2022-11-25T02:49:52;101174.19;;;4.14;100.00
15294;BME280;7748;52.474;13.454;2022-11-25T02:52:19;101175.47;;;4.21;100.00
15294;BME280;7748;52.474;13.454;2022-11-25T02:54:47;101172.53;;;4.28;100.00
15294;BME280;7748;52.474;13.454;2022-11-25T02:57:15;101172.09;;;4.22;100.00
15294;BME280;7748;52.474;13.454;2022-11-25T02:59:44;101173.38;;;4.15;100.00
15294;BME280;7748;52.474;13.454;2022-11-25T03:02:12;101181.78;;;4.13;100.00
15294;BME280;7748;52.474;13.454;2022-11-25T03:04:41;101188.28;;;4.08;100.00
15294;BME280;7748;52.474;13.454;2022-11-25T03:07:09;101194.25;;;4.07;100.00
15294;BME280;7748;52.474;13.454;2022-11-25T03:09:37;101191.44;;;4.04;100.00
15294;BME280;7748;52.474;13.454;2022-11-25T03:12:05;101183.97;;;4.07;100.00
15294;BME280;7748;52.474;13.454;2022-11-25T03:14:48;101190.91;;;4.21;100.00
15294;BME280;7748;52.474;13.454;2022-11-25T03:17:16;101186.91;;;4.13;100.00
15294;BME280;7748;52.474;13.454;2022-11-25T03:19:44;101182.00;;;4.16;100.00
15294;BME280;7748;52.474;13.454;2022-11-25T03:22:14;101195.63;;;4.15;100.00
15294;BME280;7748;52.474;13.454;2022-11-25T03:24:41;101205.16;;;4.16;100.00
15294;BME280;7748;52.474;13.454;2022-11-25T03:27:10;101203.19;;;4.25;100.00
15294;BME280;7748;52.474;13.454;2022-11-25T03:29:38;101204.75;;;4.23;100.00
15294;BME280;7748;52.474;13.454;2022-11-25T03:32:07;101208.41;;;4.27;100.00
15294;BME280;7748;52.474;13.454;2022-11-25T03:34:35;101207.66;;;4.28;100.00
15294;BME280;7748;52.474;13.454;2022-11-25T03:37:05;101208.72;;;4.31;100.00
15294;BME280;7748;52.474;13.454;2022-11-25T03:39:33;101202.97;;;4.22;100.00
15294;BME280;7748;52.474;13.454;2022-11-25T03:42:01;101196.06;;;4.21;100.00
15294;BME280;7748;52.474;13.454;2022-11-25T03:44:29;101204.06;;;4.26;100.00
15294;BME280;7748;52.474;13.454;2022-11-25T03:46:57;101204.06;;;4.26;100.00
15294;BME280;7748;52.474;13.454;2022-11-25T03:49:26;101200.13;;;4.31;100.00
15294;BME280;7748;52.474;13.454;2022-11-25T03:51:54;101200.22;;;4.32;100.00
15294;BME280;7748;52.474;13.454;2022-11-25T03:54:22;101195.09;;;4.32;100.00
15294;BME280;7748;52.474;13.454;2022-11-25T03:56:50;101200.94;;;4.30;100.00
15294;BME280;7748;52.474;13.454;2022-11-25T03:59:18;101196.63;;;4.17;100.00
15294;BME280;7748;52.474;13.454;2022-11-25T04:01:46;101188.44;;;4.22;100.00
15294;BME280;7748;52.474;13.454;2022-11-25T04:04:14;101191.09;;;4.24;100.00
15294;BME280;7748;52.474;13.454;2022-11-25T04:06:43;101205.53;;;4.09;100.00
15294;BME280;7748;52.474;13.454;2022-11-25T04:09:11;101199.63;;;4.23;100.00
15294;BME280;7748;52.474;13.454;2022-11-25T04:11:39;101201.78;;;4.17;100.00
15294;BME280;7748;52.474;13.454;2022-11-25T04:14:25;101199.41;;;4.20;100.00
15294;BME280;7748;52.474;13.454;2022-11-25T04:17:17;101196.94;;;4.21;100.00
15294;BME280;7748;52.474;13.454;2022-11-25T04:19:45;101198.44;;;4.18;100.00
15294;BME280;7748;52.474;13.454;2022-11-25T04:22:14;101207.59;;;4.14;100.00
15294;BME280;7748;52.474;13.454;2022-11-25T04:24:42;101211.28;;;4.18;100.00
15294;BME280;7748;52.474;13.454;2022-11-25T04:27:10;101209.91;;;4.23;100.00
15294;BME280;7748;52.474;13.454;2022-11-25T04:29:38;101216.81;;;4.24;100.00
15294;BME280;7748;52.474;13.454;2022-11-25T04:32:06;101218.81;;;4.28;100.00
15294;BME280;7748;52.474;13.454;2022-11-25T04:34:34;101229.91;;;4.27;100.00
15294;BME280;7748;52.474;13.454;2022-11-25T04:37:02;101231.56;;;4.27;100.00
15294;BME280;7748;52.474;13.454;2022-11-25T04:39:32;101230.28;;;4.33;100.00
15294;BME280;7748;52.474;13.454;2022-11-25T04:42:00;101230.28;;;4.33;100.00
15294;BME280;7748;52.474;13.454;2022-11-25T04:44:41;101224.38;;;4.34;100.00
15294;BME280;7748;52.474;13.454;2022-11-25T04:47:29;101227.94;;;4.36;100.00
15294;BME280;7748;52.474;13.454;2022-11-25T04:49:58;101228.72;;;4.35;100.00
15294;BME280;7748;52.474;13.454;2022-11-25T04:52:25;101235.28;;;4.43;100.00
15294;BME280;7748;52.474;13.454;2022-11-25T04:54:55;101227.03;;;4.36;100.00
15294;BME280;7748;52.474;13.454;2022-11-25T04:57:23;101232.47;;;4.40;100.00
15294;BME280;7748;52.474;13.454;2022-11-25T04:59:51;101233.91;;;4.49;100.00
15294;BME280;7748;52.474;13.454;2022-11-25T05:02:20;101231.09;;;4.32;100.00
15294;BME280;7748;52.474;13.454;2022-11-25T05:04:50;101237.31;;;4.36;100.00
15294;BME280;7748;52.474;13.454;2022-11-25T05:07:20;101230.69;;;4.26;100.00
15294;BME280;7748;52.474;13.454;2022-11-25T05:09:48;101221.59;;;4.31;100.00
15294;BME280;7748;52.474;13.454;2022-11-25T05:12:19;101224.66;;;4.26;100.00
15294;BME280;7748;52.474;13.454;2022-11-25T05:14:48;101232.25;;;4.24;100.00
15294;BME280;7748;52.474;13.454;2022-11-25T05:17:18;101226.47;;;4.15;100.00
15294;BME280;7748;52.474;13.454;2022-11-25T05:19:47;101225.59;;;4.14;100.00
15294;BME280;7748;52.474;13.454;2022-11-25T05:22:17;101228.31;;;4.29;100.00
15294;BME280;7748;52.474;13.454;2022-11-25T05:24:45;101225.34;;;4.23;100.00
15294;BME280;7748;52.474;13.454;2022-11-25T05:27:14;101229.84;;;4.14;100.00
15294;BME280;7748;52.474;13.454;2022-11-25T05:29:45;101233.81;;;4.22;100.00
15294;BME280;7748;52.474;13.454;2022-11-25T05:32:21;101245.28;;;4.14;100.00
15294;BME280;7748;52.474;13.454;2022-11-25T05:34:49;101245.91;;;4.23;100.00
15294;BME280;7748;52.474;13.454;2022-11-25T05:37:17;101247.69;;;4.24;100.00
15294;BME280;7748;52.474;13.454;2022-11-25T05:39:51;101247.22;;;4.30;100.00
15294;BME280;7748;52.474;13.454;2022-11-25T05:42:19;101259.97;;;4.28;100.00
15294;BME280;7748;52.474;13.454;2022-11-25T05:44:49;101259.00;;;4.39;100.00
15294;BME280;7748;52.474;13.454;2022-11-25T05:47:17;101256.75;;;4.44;100.00
15294;BME280;7748;52.474;13.454;2022-11-25T05:49:45;101254.06;;;4.42;100.00
15294;BME280;7748;52.474;13.454;2022-11-25T05:52:13;101260.00;;;4.41;100.00
15294;BME280;7748;52.474;13.454;2022-11-25T05:54:41;101258.31;;;4.42;100.00
15294;BME280;7748;52.474;13.454;2022-11-25T05:57:09;101263.66;;;4.45;100.00
15294;BME280;7748;52.474;13.454;2022-11-25T05:59:37;101257.63;;;4.45;100.00
15294;BME280;7748;52.474;13.454;2022-11-25T06:02:06;101258.81;;;4.50;100.00
15294;BME280;7748;52.474;13.454;2022-11-25T06:04:36;101253.78;;;4.51;100.00
15294;BME280;7748;52.474;13.454;2022-11-25T06:07:04;101256.16;;;4.48;100.00
15294;BME280;7748;52.474;13.454;2022-11-25T06:09:33;101258.22;;;4.40;100.00
15294;BME280;7748;52.474;13.454;2022-11-25T06:12:01;101252.97;;;4.39;100.00
15294;BME280;7748;52.474;13.454;2022-11-25T06:14:29;101256.81;;;4.32;100.00
15294;BME280;7748;52.474;13.454;2022-11-25T06:16:57;101254.00;;;4.29;100.00
15294;BME280;7748;52.474;13.454;2022-11-25T06:19:27;101255.63;;;4.40;100.00
15294;BME280;7748;52.474;13.454;2022-11-25T06:21:55;101253.88;;;4.39;100.00
15294;BME280;7748;52.474;13.454;2022-11-25T06:24:23;101250.69;;;4.30;100.00
15294;BME280;7748;52.474;13.454;2022-11-25T06:26:51;101250.78;;;4.32;100.00
15294;BME280;7748;52.474;13.454;2022-11-25T06:29:19;101245.34;;;4.27;100.00
15294;BME280;7748;52.474;13.454;2022-11-25T06:31:48;101243.72;;;4.16;100.00
15294;BME280;7748;52.474;13.454;2022-11-25T06:34:16;101252.56;;;4.08;100.00
15294;BME280;7748;52.474;13.454;2022-11-25T06:36:45;101245.53;;;4.05;100.00
15294;BME280;7748;52.474;13.454;2022-11-25T06:39:15;101244.59;;;3.91;100.00
15294;BME280;7748;52.474;13.454;2022-11-25T06:41:43;101249.16;;;3.95;100.00
15294;BME280;7748;52.474;13.454;2022-11-25T06:44:13;101251.63;;;3.94;100.00
15294;BME280;7748;52.474;13.454;2022-11-25T06:46:41;101262.78;;;3.94;100.00
15294;BME280;7748;52.474;13.454;2022-11-25T06:49:19;101268.84;;;3.95;100.00
15294;BME280;7748;52.474;13.454;2022-11-25T06:51:55;101264.84;;;3.87;100.00
15294;BME280;7748;52.474;13.454;2022-11-25T06:54:24;101274.69;;;3.80;100.00
15294;BME280;7748;52.474;13.454;2022-11-25T06:56:52;101280.50;;;3.78;100.00
15294;BME280;7748;52.474;13.454;2022-11-25T06:59:20;101279.63;;;3.77;100.00
15294;BME280;7748;52.474;13.454;2022-11-25T07:01:48;101286.66;;;3.80;100.00
15294;BME280;7748;52.474;13.454;2022-11-25T07:04:16;101292.94;;;3.72;100.00
15294;BME280;7748;52.474;13.454;2022-11-25T07:06:44;101291.72;;;3.67;100.00
15294;BME280;7748;52.474;13.454;2022-11-25T07:09:13;101287.81;;;3.60;100.00
15294;BME280;7748;52.474;13.454;2022-11-25T07:11:41;101298.44;;;3.65;100.00
15294;BME280;7748;52.474;13.454;2022-11-25T07:14:11;101300.41;;;3.69;100.00
15294;BME280;7748;52.474;13.454;2022-11-25T07:16:42;101304.34;;;3.64;100.00
15294;BME280;7748;52.474;13.454;2022-11-25T07:19:11;101308.22;;;3.70;100.00
15294;BME280;7748;52.474;13.454;2022-11-25T07:21:40;101310.44;;;3.77;100.00
15294;BME280;7748;52.474;13.454;2022-11-25T07:24:11;101320.72;;;3.77;100.00
15294;BME280;7748;52.474;13.454;2022-11-25T07:26:42;101325.84;;;3.89;100.00
15294;BME280;7748;52.474;13.454;2022-11-25T07:29:12;101335.19;;;4.00;100.00
15294;BME280;7748;52.474;13.454;2022-11-25T07:32:00;101341.78;;;4.09;100.00
15294;BME280;7748;52.474;13.454;2022-11-25T07:34:36;101336.03;;;4.13;100.00
15294;BME280;7748;52.474;13.454;2022-11-25T07:37:04;101337.03;;;4.15;100.00
15294;BME280;7748;52.474;13.454;2022-11-25T07:39:32;101339.50;;;4.25;100.00
15294;BME280;7748;52.474;13.454;2022-11-25T07:42:02;101336.69;;;4.22;100.00
15294;BME280;7748;52.474;13.454;2022-11-25T07:44:30;101342.16;;;4.27;100.00
15294;BME280;7748;52.474;13.454;2022-11-25T07:46:58;101352.44;;;4.02;100.00
15294;BME280;7748;52.474;13.454;2022-11-25T07:49:26;101345.13;;;4.08;100.00
15294;BME280;7748;52.474;13.454;2022-11-25T07:51:56;101341.41;;;4.16;100.00
15294;BME280;7748;52.474;13.454;2022-11-25T07:54:25;101339.41;;;4.12;100.00
15294;BME280;7748;52.474;13.454;2022-11-25T07:56:53;101343.00;;;4.14;100.00
15294;BME280;7748;52.474;13.454;2022-11-25T07:59:22;101334.47;;;4.15;100.00
15294;BME280;7748;52.474;13.454;2022-11-25T08:01:51;101337.59;;;4.22;100.00
15294;BME280;7748;52.474;13.454;2022-11-25T08:04:19;101333.53;;;4.26;100.00
15294;BME280;7748;52.474;13.454;2022-11-25T08:06:49;101331.13;;;4.16;100.00
15294;BME280;7748;52.474;13.454;2022-11-25T08:09:20;101337.41;;;4.08;100.00
15294;BME280;7748;52.474;13.454;2022-11-25T08:11:55;101338.97;;;4.06;100.00
15294;BME280;7748;52.474;13.454;2022-11-25T08:14:25;101331.16;;;4.29;100.00
15294;BME280;7748;52.474;13.454;2022-11-25T08:16:53;101335.13;;;4.24;100.00
15294;BME280;7748;52.474;13.454;2022-11-25T08:19:21;101343.75;;;4.13;100.00
15294;BME280;7748;52.474;13.454;2022-11-25T08:21:56;101356.56;;;3.99;100.00
15294;BME280;7748;52.474;13.454;2022-11-25T08:24:24;101353.34;;;4.27;100.00
15294;BME280;7748;52.474;13.454;2022-11-25T08:26:52;101352.44;;;4.27;100.00
15294;BME280;7748;52.474;13.454;2022-11-25T08:29:22;101356.16;;;4.18;100.00
15294;BME280;7748;52.474;13.454;2022-11-25T08:31:51;101360.19;;;4.15;100.00
15294;BME280;7748;52.474;13.454;2022-11-25T08:34:21;101357.06;;;4.19;100.00
15294;BME280;7748;52.474;13.454;2022-11-25T08:36:50;101361.75;;;4.13;100.00
15294;BME280;7748;52.474;13.454;2022-11-25T08:39:19;101354.84;;;4.12;100.00
15294;BME280;7748;52.474;13.454;2022-11-25T08:42:08;101356.63;;;4.13;100.00
15294;BME280;7748;52.474;13.454;2022-11-25T08:44:36;101367.50;;;4.34;100.00
15294;BME280;7748;52.474;13.454;2022-11-25T08:47:05;101359.91;;;4.35;100.00
15294;BME280;7748;52.474;13.454;2022-11-25T08:49:33;101367.47;;;4.46;100.00
15294;BME280;7748;52.474;13.454;2022-11-25T08:52:07;101366.69;;;4.47;100.00
15294;BME280;7748;52.474;13.454;2022-11-25T08:54:36;101370.06;;;4.59;100.00
15294;BME280;7748;52.474;13.454;2022-11-25T08:57:04;101369.69;;;4.53;100.00
15294;BME280;7748;52.474;13.454;2022-11-25T08:59:32;101367.56;;;4.47;100.00
15294;BME280;7748;52.474;13.454;2022-11-25T09:02:00;101374.09;;;4.67;100.00
15294;BME280;7748;52.474;13.454;2022-11-25T09:04:30;101366.50;;;4.57;100.00
15294;BME280;7748;52.474;13.454;2022-11-25T09:06:57;101366.94;;;4.63;100.00
15294;BME280;7748;52.474;13.454;2022-11-25T09:09:27;101366.50;;;4.57;100.00
15294;BME280;7748;52.474;13.454;2022-11-25T09:11:55;101366.06;;;4.62;100.00
15294;BME280;7748;52.474;13.454;2022-11-25T09:14:23;101376.72;;;4.80;100.00
15294;BME280;7748;52.474;13.454;2022-11-25T09:16:51;101378.28;;;4.78;100.00
15294;BME280;7748;52.474;13.454;2022-11-25T09:19:21;101381.22;;;4.71;100.00
15294;BME280;7748;52.474;13.454;2022-11-25T09:21:51;101377.69;;;4.82;100.00
15294;BME280;7748;52.474;13.454;2022-11-25T09:24:21;101380.75;;;4.52;100.00
15294;BME280;7748;52.474;13.454;2022-11-25T09:26:52;101378.06;;;4.75;100.00
15294;BME280;7748;52.474;13.454;2022-11-25T09:29:20;101379.41;;;4.95;100.00
15294;BME280;7748;52.474;13.454;2022-11-25T09:31:48;101375.66;;;4.65;100.00
15294;BME280;7748;52.474;13.454;2022-11-25T09:34:20;101365.16;;;5.00;100.00
15294;BME280;7748;52.474;13.454;2022-11-25T09:36:52;101368.00;;;4.92;100.00
15294;BME280;7748;52.474;13.454;2022-11-25T09:39:25;101367.34;;;5.07;100.00
15294;BME280;7748;52.474;13.454;2022-11-25T09:42:10;101372.72;;;4.72;100.00
15294;BME280;7748;52.474;13.454;2022-11-25T09:45:09;101366.41;;;4.80;100.00
15294;BME280;7748;52.474;13.454;2022-11-25T09:48:07;101368.28;;;4.83;100.00
15294;BME280;7748;52.474;13.454;2022-11-25T09:50:50;101365.34;;;5.03;100.00
15294;BME280;7748;52.474;13.454;2022-11-25T09:53:33;101365.09;;;5.25;100.00
15294;BME280;7748;52.474;13.454;2022-11-25T09:56:11;101363.50;;;5.14;100.00
15294;BME280;7748;52.474;13.454;2022-11-25T09:58:47;101358.53;;;5.04;100.00
15294;BME280;7748;52.474;13.454;2022-11-25T10:01:17;101350.28;;;4.96;100.00
15294;BME280;7748;52.474;13.454;2022-11-25T10:03:53;101355.13;;;4.92;100.00
15294;BME280;7748;52.474;13.454;2022-11-25T10:06:24;101350.41;;;4.98;100.00
15294;BME280;7748;52.474;13.454;2022-11-25T10:08:56;101350.41;;;4.98;100.00
15294;BME280;7748;52.474;13.454;2022-11-25T10:11:34;101345.88;;;5.20;100.00
15294;BME280;7748;52.474;13.454;2022-11-25T10:14:14;101341.31;;;5.30;100.00
15294;BME280;7748;52.474;13.454;2022-11-25T10:16:49;101332.97;;;5.34;100.00
15294;BME280;7748;52.474;13.454;2022-11-25T10:19:25;101342.09;;;5.42;100.00
15294;BME280;7748;52.474;13.454;2022-11-25T10:21:59;101333.59;;;5.30;100.00
15294;BME280;7748;52.474;13.454;2022-11-25T10:24:31;101332.97;;;5.34;100.00
15294;BME280;7748;52.474;13.454;2022-11-25T10:27:12;101329.63;;;5.48;100.00
15294;BME280;7748;52.474;13.454;2022-11-25T10:29:42;101343.41;;;5.35;100.00
15294;BME280;7748;52.474;13.454;2022-11-25T10:32:21;101351.41;;;5.40;100.00
15294;BME280;7748;52.474;13.454;2022-11-25T10:34:53;101346.88;;;5.62;100.00
15294;BME280;7748;52.474;13.454;2022-11-25T10:37:28;101340.41;;;5.42;100.00
15294;BME280;7748;52.474;13.454;2022-11-25T10:39:59;101340.28;;;5.81;100.00
15294;BME280;7748;52.474;13.454;2022-11-25T10:42:27;101339.69;;;5.85;100.00
15294;BME280;7748;52.474;13.454;2022-11-25T10:44:55;101342.59;;;5.76;100.00
15294;BME280;7748;52.474;13.454;2022-11-25T10:47:34;101335.16;;;5.67;100.00
15294;BME280;7748;52.474;13.454;2022-11-25T10:50:10;101334.16;;;5.65;100.00
15294;BME280;7748;52.474;13.454;2022-11-25T10:52:47;101331.69;;;5.67;100.00
15294;BME280;7748;52.474;13.454;2022-11-25T10:55:21;101339.13;;;5.49;100.00
15294;BME280;7748;52.474;13.454;2022-11-25T10:57:51;101330.00;;;5.67;100.00
15294;BME280;7748;52.474;13.454;2022-11-25T11:00:31;101338.34;;;5.50;100.00
15294;BME280;7748;52.474;13.454;2022-11-25T11:03:11;101350.00;;;5.85;100.00
15294;BME280;7748;52.474;13.454;2022-11-25T11:05:44;101357.94;;;5.75;100.00
15294;BME280;7748;52.474;13.454;2022-11-25T11:08:18;101362.19;;;5.87;100.00
15294;BME280;7748;52.474;13.454;2022-11-25T11:11:08;101346.56;;;6.13;100.00
15294;BME280;7748;52.474;13.454;2022-11-25T11:13:37;101351.44;;;6.08;100.00
15294;BME280;7748;52.474;13.454;2022-11-25T11:16:20;101348.69;;;6.33;100.00
15294;BME280;7748;52.474;13.454;2022-11-25T11:18:50;101338.81;;;6.26;100.00
15294;BME280;7748;52.474;13.454;2022-11-25T11:21:23;101333.19;;;6.18;100.00
15294;BME280;7748;52.474;13.454;2022-11-25T11:23:55;101330.13;;;6.39;100.00
15294;BME280;7748;52.474;13.454;2022-11-25T11:26:28;101331.88;;;6.25;100.00
15294;BME280;7748;52.474;13.454;2022-11-25T11:28:58;101329.56;;;6.01;100.00
15294;BME280;7748;52.474;13.454;2022-11-25T11:31:31;101328.16;;;6.06;100.00
15294;BME280;7748;52.474;13.454;2022-11-25T11:34:10;101333.31;;;6.06;100.00
15294;BME280;7748;52.474;13.454;2022-11-25T11:36:54;101331.91;;;6.11;100.00
15294;BME280;7748;52.474;13.454;2022-11-25T11:39:39;101325.91;;;6.26;100.00
15294;BME280;7748;52.474;13.454;2022-11-25T11:42:20;101329.31;;;6.40;100.00
15294;BME280;7748;52.474;13.454;2022-11-25T11:45:01;101322.72;;;6.30;100.00
15294;BME280;7748;52.474;13.454;2022-11-25T11:47:52;101319.09;;;6.41;100.00
15294;BME280;7748;52.474;13.454;2022-11-25T11:50:27;101313.09;;;6.27;100.00
15294;BME280;7748;52.474;13.454;2022-11-25T11:52:59;101316.13;;;6.35;100.00
15294;BME280;7748;52.474;13.454;2022-11-25T11:55:39;101314.72;;;6.40;100.00
15294;BME280;7748;52.474;13.454;2022-11-25T11:58:19;101320.63;;;6.52;100.00
15294;BME280;7748;52.474;13.454;2022-11-25T12:00:58;101313.00;;;6.26;100.00
15294;BME280;7748;52.474;13.454;2022-11-25T12:03:34;101315.63;;;6.13;100.00
15294;BME280;7748;52.474;13.454;2022-11-25T12:06:05;101311.44;;;6.15;100.00
15294;BME280;7748;52.474;13.454;2022-11-25T12:08:42;101310.56;;;6.14;100.00
15294;BME280;7748;52.474;13.454;2022-11-25T12:11:16;101314.41;;;6.21;100.00
15294;BME280;7748;52.474;13.454;2022-11-25T12:13:51;101301.19;;;6.29;100.00
15294;BME280;7748;52.474;13.454;2022-11-25T12:16:31;101309.25;;;6.21;100.00
15294;BME280;7748;52.474;13.454;2022-11-25T12:19:05;101308.44;;;6.22;100.00
15294;BME280;7748;52.474;13.454;2022-11-25T12:21:53;101301.78;;;6.10;100.00
15294;BME280;7748;52.474;13.454;2022-11-25T12:24:28;101296.41;;;6.07;100.00
15294;BME280;7748;52.474;13.454;2022-11-25T12:27:00;101298.25;;;5.95;100.00
15294;BME280;7748;52.474;13.454;2022-11-25T12:29:35;101296.53;;;5.96;100.00
15294;BME280;7748;52.474;13.454;2022-11-25T12:32:34;101293.66;;;6.04;100.00
15294;BME280;7748;52.474;13.454;2022-11-25T12:35:15;101293.66;;;6.04;100.00
15294;BME280;7748;52.474;13.454;2022-11-25T12:37:49;101298.81;;;6.04;100.00
15294;BME280;7748;52.474;13.454;2022-11-25T12:40:23;101298.41;;;5.98;100.00
15294;BME280;7748;52.474;13.454;2022-11-25T12:42:56;101296.22;;;6.04;100.00
15294;BME280;7748;52.474;13.454;2022-11-25T12:45:32;101294.41;;;6.03;100.00
15294;BME280;7748;52.474;13.454;2022-11-25T12:48:00;101298.63;;;6.01;100.00
15294;BME280;7748;52.474;13.454;2022-11-25T12:50:37;101302.72;;;6.13;100.00
15294;BME280;7748;52.474;13.454;2022-11-25T12:53:12;101299.19;;;6.10;100.00
15294;BME280;7748;52.474;13.454;2022-11-25T12:55:42;101301.09;;;6.00;100.00
15294;BME280;7748;52.474;13.454;2022-11-25T12:58:40;101300.97;;;6.11;100.00
15294;BME280;7748;52.474;13.454;2022-11-25T13:01:48;101295.97;;;6.15;100.00
15294;BME280;7748;52.474;13.454;2022-11-25T13:04:51;101294.19;;;5.99;100.00
15294;BME280;7748;52.474;13.454;2022-11-25T13:07:50;101295.19;;;6.16;100.00
15294;BME280;7748;52.474;13.454;2022-11-25T13:10:36;101294.75;;;6.23;100.00
15294;BME280;7748;52.474;13.454;2022-11-25T13:13:24;101293.78;;;6.21;100.00
15294;BME280;7748;52.474;13.454;2022-11-25T13:15:58;101298.00;;;6.05;100.00